Time;durP1;ratioP1;P1;durP2;ratioP2;P2;SDS_P1;SDS_P2;PMS_P1;PMS_P2;Temp;Humidity;BMP_temperature;BMP_pressure;BME280_temperature;BME280_humidity;BME280_pressure;Samples;Min_cycle;Max_cycle;Signal;HPM_P1;HPM_P2
2023/12/04 00:00:04;;;;;;;14.27;5.25;;;11.20;92.90;;;;;;5093394;28;20227;-71
2023/12/04 00:03:16;;;;;;;15.82;4.88;;;;;;;;;;5082342;28;20490;-71
2023/12/04 00:06:21;;;;;;;12.75;5.18;;;10.90;92.80;;;;;;5093684;28;20051;-71
2023/12/04 00:09:27;;;;;;;12.70;5.40;;;;;;;;;;5093657;28;20495;-71
2023/12/04 00:12:32;;;;;;;10.38;4.60;;;;;;;;;;5093459;28;20537;-71
2023/12/04 00:15:36;;;;;;;14.52;5.10;;;;;;;;;;5093625;28;20069;-71
2023/12/04 00:18:40;;;;;;;11.07;4.88;;;;;;;;;;5080558;28;20047;-71
2023/12/04 00:21:45;;;;;;;11.27;4.13;;;;;;;;;;5093417;28;20051;-71
2023/12/04 00:24:49;;;;;;;11.32;4.43;;;;;;;;;;5093123;28;20047;-71
2023/12/04 00:27:53;;;;;;;11.27;5.18;;;;;;;;;;5093129;28;20047;-71
2023/12/04 00:30:58;;;;;;;10.85;5.15;;;;;;;;;;5093145;28;20043;-71
2023/12/04 00:34:02;;;;;;;14.00;5.60;;;;;;;;;;5092829;28;20063;-71
2023/12/04 00:37:06;;;;;;;10.55;4.72;;;;;;;;;;5093040;28;20043;-71
2023/12/04 00:40:11;;;;;;;13.55;4.53;;;;;;;;;;5092740;28;20047;-71
2023/12/04 00:43:15;;;;;;;8.30;3.95;;;;;;;;;;5092705;28;20499;-71
2023/12/04 00:46:19;;;;;;;10.98;4.03;;;;;;;;;;5092827;28;20036;-71
2023/12/04 00:49:24;;;;;;;9.32;3.83;;;;;;;;;;5092718;28;20043;-71
2023/12/04 00:52:28;;;;;;;13.55;4.65;;;;;;;;;;5092715;28;20044;-71
2023/12/04 00:55:32;;;;;;;10.55;4.90;;;;;;;;;;5092910;28;20503;-71
2023/12/04 00:58:37;;;;;;;15.15;6.53;;;;;;;;;;5080198;28;20051;-71
2023/12/04 01:01:41;;;;;;;8.45;4.22;;;;;;;;;;5092340;28;20051;-71
2023/12/04 01:04:45;;;;;;;9.10;3.65;;;10.50;93.70;;;;;;5092342;28;20507;-71
2023/12/04 01:07:49;;;;;;;9.55;3.88;;;10.10;93.30;;;;;;5092215;28;20038;-70
2023/12/04 01:10:53;;;;;;;11.05;3.50;;;10.20;94.30;;;;;;5092251;28;20388;-70
2023/12/04 01:13:57;;;;;;;11.32;4.20;;;9.30;93.70;;;;;;5092137;28;20055;-71
2023/12/04 01:17:01;;;;;;;5.60;3.03;;;10.40;93.80;;;;;;5092165;28;20054;-70
2023/12/04 01:20:05;;;;;;;10.07;3.75;;;10.80;93.40;;;;;;5092172;28;20055;-71
2023/12/04 01:23:09;;;;;;;8.20;3.08;;;;;;;;;;5092334;28;20059;-71
2023/12/04 01:26:14;;;;;;;7.80;2.90;;;;;;;;;;5092024;28;20180;-71
2023/12/04 01:29:18;;;;;;;8.70;2.80;;;10.30;93.90;;;;;;5091960;28;20036;-71
2023/12/04 01:32:22;;;;;;;5.68;2.60;;;10.00;94.00;;;;;;5091837;28;20039;-70
2023/12/04 01:35:26;;;;;;;6.60;2.75;;;;;;;;;;5092026;28;20043;-70
2023/12/04 01:38:30;;;;;;;5.80;2.80;;;;;;;;;;5092100;28;20158;-71
2023/12/04 01:41:34;;;;;;;4.32;1.90;;;10.00;94.40;;;;;;5091662;28;20032;-70
2023/12/04 01:44:38;;;;;;;5.43;2.35;;;10.00;94.20;;;;;;5091730;28;20046;-70
2023/12/04 01:47:42;;;;;;;5.93;2.45;;;10.10;94.40;;;;;;5091917;28;20049;-71
2023/12/04 01:50:47;;;;;;;9.90;2.95;;;10.30;93.50;;;;;;5091492;28;20191;-70
2023/12/04 01:53:50;;;;;;;4.22;2.38;;;10.00;94.20;;;;;;5091638;28;20438;-70
2023/12/04 01:56:54;;;;;;;3.58;2.00;;;10.30;93.40;;;;;;5091395;28;20035;-70
2023/12/04 01:59:59;;;;;;;8.88;2.35;;;10.50;93.60;;;;;;5091286;28;20050;-71
2023/12/04 02:03:03;;;;;;;7.80;2.17;;;;;;;;;;5091521;28;20368;-71
2023/12/04 02:06:09;;;;;;;6.35;2.40;;;10.20;93.40;;;;;;5091349;28;20040;-71
2023/12/04 02:09:16;;;;;;;5.78;2.67;;;;;;;;;;5091327;28;20055;-71
2023/12/04 02:12:21;;;;;;;5.03;2.20;;;;;;;;;;5091477;28;20035;-71
2023/12/04 02:15:25;;;;;;;7.65;2.33;;;;;;;;;;5091450;28;20044;-71
2023/12/04 02:18:29;;;;;;;4.93;2.33;;;10.80;93.90;;;;;;5052909;28;20064;-71
2023/12/04 02:21:34;;;;;;;7.28;2.55;;;;;;;;;;5050360;28;20044;-72
2023/12/04 02:24:38;;;;;;;9.07;2.72;;;;;;;;;;5051183;28;20037;-71
2023/12/04 02:27:51;;;;;;;10.15;2.70;;;10.50;93.00;;;;;;5051174;28;20037;-71
2023/12/04 02:30:56;;;;;;;8.30;2.90;;;10.90;93.30;;;;;;5050695;28;20040;-72
2023/12/04 02:34:02;;;;;;;11.90;2.70;;;10.30;93.10;;;;;;5050961;28;20048;-71
2023/12/04 02:37:08;;;;;;;7.40;2.38;;;10.30;93.30;;;;;;5051116;28;20032;-71
2023/12/04 02:40:13;;;;;;;7.97;3.03;;;10.40;93.40;;;;;;5050927;28;20048;-71
2023/12/04 02:43:17;;;;;;;10.57;3.05;;;10.00;94.00;;;;;;5050671;28;20048;-70
2023/12/04 02:46:21;;;;;;;7.50;2.75;;;10.20;94.50;;;;;;5050818;28;20036;-71
2023/12/04 02:49:25;;;;;;;6.40;3.33;;;;;;;;;;5050990;28;20409;-71
2023/12/04 02:52:29;;;;;;;8.45;3.05;;;;;;;;;;5050884;28;20382;-71
2023/12/04 02:55:34;;;;;;;4.80;2.40;;;9.60;94.20;;;;;;5050546;28;20049;-70
2023/12/04 02:58:37;;;;;;;4.90;2.03;;;9.60;94.30;;;;;;5050629;28;20033;-71
2023/12/04 03:01:42;;;;;;;11.77;2.05;;;10.00;93.30;;;;;;5050533;28;20041;-72
2023/12/04 03:04:46;;;;;;;5.57;2.20;;;10.10;93.40;;;;;;5050335;28;20040;-71
2023/12/04 03:07:49;;;;;;;5.25;1.75;;;9.50;93.80;;;;;;5049759;28;20051;-70
2023/12/04 03:10:53;;;;;;;4.20;2.20;;;10.20;92.90;;;;;;5050486;28;20036;-70
2023/12/04 03:14:00;;;;;;;5.00;1.98;;;10.00;93.70;;;;;;5050315;28;20417;-71
2023/12/04 03:17:03;;;;;;;6.10;1.75;;;10.10;93.60;;;;;;5059857;28;20051;-70
2023/12/04 03:20:08;;;;;;;5.45;2.17;;;10.10;93.60;;;;;;5090772;28;20043;-71
2023/12/04 03:23:12;;;;;;;7.00;2.00;;;10.40;92.80;;;;;;5090570;28;20059;-71
2023/12/04 03:26:17;;;;;;;5.20;2.60;;;10.10;93.20;;;;;;5090387;28;20047;-71
2023/12/04 03:29:24;;;;;;;7.50;1.88;;;8.60;92.70;;;;;;5090649;28;20035;-71
2023/12/04 03:32:28;;;;;;;7.78;2.17;;;9.90;93.20;;;;;;5092303;28;20039;-70
2023/12/04 03:35:32;;;;;;;4.72;2.08;;;9.80;93.30;;;;;;5094529;28;20403;-71
2023/12/04 03:38:36;;;;;;;4.90;2.00;;;10.10;93.50;;;;;;5094510;28;20032;-71
2023/12/04 03:41:40;;;;;;;3.97;1.73;;;10.30;92.70;;;;;;5081844;28;20138;-71
2023/12/04 03:44:44;;;;;;;4.53;2.00;;;10.50;92.70;;;;;;5094375;28;20051;-71
2023/12/04 03:47:47;;;;;;;5.45;2.08;;;10.20;92.60;;;;;;5094054;28;20400;-70
2023/12/04 03:50:52;;;;;;;5.30;1.92;;;;;;;;;;5094017;28;20051;-70
2023/12/04 03:53:56;;;;;;;5.45;1.77;;;;;;;;;;5093766;28;20408;-70
2023/12/04 03:57:00;;;;;;;4.28;1.75;;;9.90;93.70;;;;;;5093733;28;20040;-70
2023/12/04 04:00:05;;;;;;;4.00;1.98;;;10.20;92.80;;;;;;5093704;28;20059;-70
2023/12/04 04:03:15;;;;;;;5.43;1.73;;;10.20;92.70;;;;;;5093970;28;20047;-71
2023/12/04 04:06:20;;;;;;;4.50;2.28;;;;;;;;;;5093969;28;20391;-70
2023/12/04 04:09:23;;;;;;;5.13;2.00;;;9.70;94.00;;;;;;5093727;28;20032;-70
2023/12/04 04:12:27;;;;;;;3.20;1.60;;;9.60;93.90;;;;;;5093922;28;20032;-70
2023/12/04 04:15:32;;;;;;;4.68;1.60;;;9.50;93.90;;;;;;5093826;28;20515;-70
2023/12/04 04:18:36;;;;;;;4.88;1.60;;;9.50;93.90;;;;;;5093246;28;20455;-70
2023/12/04 04:21:40;;;;;;;6.60;1.90;;;10.30;93.10;;;;;;5093617;28;20399;-70
2023/12/04 04:24:44;;;;;;;3.25;1.70;;;9.60;93.90;;;;;;5080891;28;20039;-71
2023/12/04 04:27:48;;;;;;;3.17;1.60;;;9.80;93.90;;;;;;5093407;28;20040;-70
2023/12/04 04:30:52;;;;;;;4.35;1.80;;;9.80;93.80;;;;;;5093199;28;20040;-71
2023/12/04 04:33:56;;;;;;;4.47;1.60;;;9.50;94.10;;;;;;5093089;28;20058;-72
2023/12/04 04:37:00;;;;;;;2.50;1.80;;;;;;;;;;5093332;28;20049;-71
2023/12/04 04:40:05;;;;;;;6.70;2.00;;;9.80;94.00;;;;;;5092898;28;20040;-70
2023/12/04 04:43:11;;;;;;;3.85;1.70;;;9.60;94.20;;;;;;5092431;28;20032;-70
2023/12/04 04:46:14;;;;;;;5.35;1.67;;;9.60;94.30;;;;;;5093042;28;20055;-71
2023/12/04 04:49:18;;;;;;;3.55;1.75;;;9.50;93.80;;;;;;5092766;28;20039;-71
2023/12/04 04:52:22;;;;;;;3.53;1.95;;;9.80;94.40;;;;;;5092815;28;20399;-71
2023/12/04 04:55:26;;;;;;;5.20;1.92;;;9.70;94.40;;;;;;5092910;28;20044;-71
2023/12/04 04:58:29;;;;;;;7.63;1.88;;;9.80;94.20;;;;;;5092927;28;20603;-71
2023/12/04 05:01:33;;;;;;;3.65;1.80;;;8.40;93.80;;;;;;5092436;28;20047;-71
2023/12/04 05:04:37;;;;;;;3.00;2.08;;;8.80;94.10;;;;;;5092714;28;20095;-71
2023/12/04 05:07:41;;;;;;;5.80;1.90;;;9.80;93.50;;;;;;5092511;28;20218;-71
2023/12/04 05:10:45;;;;;;;3.92;1.90;;;9.50;93.10;;;;;;5092553;28;20028;-71
2023/12/04 05:13:49;;;;;;;3.28;1.80;;;9.30;93.80;;;;;;5080054;28;20086;-71
2023/12/04 05:16:53;;;;;;;4.53;1.92;;;;;;;;;;5092349;28;20051;-70
2023/12/04 05:19:57;;;;;;;4.70;1.80;;;9.60;93.70;;;;;;5092435;28;20048;-71
2023/12/04 05:23:01;;;;;;;7.28;2.17;;;7.90;93.30;;;;;;5092432;28;20032;-71
2023/12/04 05:26:06;;;;;;;3.25;1.63;;;9.50;93.60;;;;;;5092271;28;20040;-70
2023/12/04 05:29:10;;;;;;;6.25;1.73;;;10.40;93.00;;;;;;5079648;28;20055;-72
2023/12/04 05:32:14;;;;;;;5.32;1.90;;;9.90;93.80;;;;;;5092228;28;20051;-71
2023/12/04 05:35:18;;;;;;;5.15;2.28;;;10.10;93.00;;;;;;5091937;28;20057;-71
2023/12/04 05:38:22;;;;;;;6.95;2.03;;;10.20;93.00;;;;;;5092090;28;20506;-71
2023/12/04 05:41:26;;;;;;;6.05;2.10;;;9.80;93.10;;;;;;5091857;28;20055;-71
2023/12/04 05:44:31;;;;;;;4.15;1.67;;;9.50;94.20;;;;;;5091957;28;20038;-70
2023/12/04 05:47:38;;;;;;;3.80;1.67;;;9.80;93.40;;;;;;5091749;28;20040;-70
2023/12/04 05:50:42;;;;;;;6.00;2.08;;;9.80;93.60;;;;;;5091365;28;20039;-70
2023/12/04 05:53:46;;;;;;;5.75;2.20;;;9.60;93.50;;;;;;5091399;28;20389;-70
2023/12/04 05:56:50;;;;;;;9.00;2.40;;;11.60;95.70;;;;;;5091562;28;20043;-69
2023/12/04 05:59:54;;;;;;;9.80;3.88;;;10.00;95.50;;;;;;5091564;28;20039;-70
2023/12/04 06:02:58;;;;;;;12.98;4.20;;;11.70;95.80;;;;;;5091526;28;20055;-70
2023/12/04 06:06:02;;;;;;;7.75;3.20;;;;;;;;;;5091240;28;20534;-69
2023/12/04 06:09:07;;;;;;;7.15;2.63;;;;;;;;;;5091248;28;20032;-69
2023/12/04 06:12:11;;;;;;;9.43;2.70;;;11.60;96.10;;;;;;5091771;28;20043;-70
2023/12/04 06:15:15;;;;;;;10.65;3.13;;;11.70;96.30;;;;;;5078702;28;20058;-70
2023/12/04 06:18:20;;;;;;;9.30;2.83;;;8.80;95.20;;;;;;5090888;28;20055;-70
2023/12/04 06:21:24;;;;;;;11.45;3.47;;;8.90;95.30;;;;;;5091315;28;20392;-70
2023/12/04 06:24:28;;;;;;;9.70;2.70;;;9.00;95.40;;;;;;5091077;28;20051;-70
2023/12/04 06:27:33;;;;;;;19.77;4.07;;;9.30;94.30;;;;;;5091132;28;20032;-71
2023/12/04 06:31:09;;;;;;;21.38;5.60;;;9.00;95.50;;;;;;5091150;28;20035;-69
2023/12/04 06:34:13;;;;;;;19.23;5.60;;;8.80;96.00;;;;;;5090917;28;20051;-69
2023/12/04 06:37:17;;;;;;;15.25;4.35;;;9.30;95.10;;;;;;5091116;28;20039;-69
2023/12/04 06:40:22;;;;;;;14.73;5.72;;;8.90;96.10;;;;;;5090848;28;20407;-70
2023/12/04 06:43:27;;;;;;;9.45;4.63;;;9.30;94.90;;;;;;5091101;28;20246;-69
2023/12/04 06:46:37;;;;;;;9.27;4.43;;;8.90;95.40;;;;;;5090757;28;20047;-69
2023/12/04 06:49:41;;;;;;;9.63;5.05;;;9.30;95.50;;;;;;5078469;28;20040;-70
2023/12/04 06:52:45;;;;;;;12.45;5.40;;;9.50;94.60;;;;;;5090999;28;20502;-70
2023/12/04 06:55:49;;;;;;;15.70;5.55;;;9.30;95.30;;;;;;5090455;28;20507;-69
2023/12/04 06:58:52;;;;;;;21.00;6.30;;;9.50;95.50;;;;;;5091130;28;20039;-69
2023/12/04 07:01:57;;;;;;;57.88;9.45;;;;;;;;;;5090399;28;20043;-69
2023/12/04 07:05:03;;;;;;;117.60;17.27;;;;;;;;;;5090607;28;20062;-69
2023/12/04 07:08:06;;;;;;;39.58;10.93;;;9.50;95.40;;;;;;5093258;28;20047;-67
2023/12/04 07:11:14;;;;;;;29.88;10.82;;;9.80;94.60;;;;;;5094680;28;20056;-69
2023/12/04 07:14:18;;;;;;;34.53;12.35;;;;;;;;;;5094667;28;20545;-68
2023/12/04 07:17:22;;;;;;;23.80;12.95;;;9.50;95.40;;;;;;5094269;28;20225;-68
2023/12/04 07:20:26;;;;;;;28.13;12.00;;;;;;;;;;5094026;28;20055;-68
2023/12/04 07:23:30;;;;;;;26.05;10.57;;;9.70;94.70;;;;;;5094562;28;20051;-68
2023/12/04 07:26:35;;;;;;;28.23;12.60;;;9.80;94.60;;;;;;5094385;28;20059;-71
2023/12/04 07:33:01;;;;;;;21.20;10.57;;;9.00;94.50;;;;;;5094153;28;20071;-71
2023/12/04 07:36:05;;;;;;;25.20;10.85;;;8.30;94.00;;;;;;5094258;28;20114;-69
2023/12/04 07:39:10;;;;;;;22.02;9.43;;;10.00;93.40;;;;;;5093896;28;20039;-69
2023/12/04 07:42:15;;;;;;;23.60;9.93;;;;;;;;;;5093951;28;20043;-69
2023/12/04 07:45:19;;;;;;;29.50;14.73;;;12.10;94.20;;;;;;5081569;28;20039;-68
2023/12/04 07:48:23;;;;;;;30.30;14.10;;;;;;;;;;5094070;28;20134;-70
2023/12/04 07:51:27;;;;;;;36.85;14.05;;;;;;;;;;5093827;28;20050;-73
2023/12/04 07:54:32;;;;;;;30.65;12.70;;;;;;;;;;5093733;28;20051;-74
2023/12/04 07:57:37;;;;;;;23.05;11.60;;;;;;;;;;5093855;28;20364;-71
2023/12/04 08:00:41;;;;;;;25.80;13.80;;;;;;;;;;5093270;28;20050;-68
2023/12/04 08:03:46;;;;;;;24.90;12.15;;;;;;;;;;5093818;28;20043;-70
2023/12/04 08:06:50;;;;;;;32.42;14.43;;;;;;;;;;5093598;28;20574;-68
2023/12/04 08:09:54;;;;;;;24.45;12.40;;;;;;;;;;5093607;28;20058;-68
2023/12/04 08:12:59;;;;;;;21.08;9.95;;;;;;;;;;5093621;28;20043;-72
2023/12/04 08:16:03;;;;;;;19.42;9.75;;;;;;;;;;5093116;28;20051;-73
2023/12/04 08:19:08;;;;;;;17.63;8.98;;;;;;;;;;5068022;28;20059;-71
2023/12/04 08:22:12;;;;;;;26.85;8.63;;;;;;;;;;5093349;28;20391;-73
2023/12/04 08:25:16;;;;;;;22.65;8.00;;;;;;;;;;5093099;28;20043;-70
2023/12/04 08:28:20;;;;;;;20.00;7.72;;;;;;;;;;5093520;28;20047;-68
2023/12/04 08:31:25;;;;;;;20.05;9.02;;;;;;;;;;5080597;28;20047;-67
2023/12/04 08:34:29;;;;;;;30.92;9.23;;;;;;;;;;5092875;28;20058;-68
2023/12/04 08:37:33;;;;;;;22.83;7.88;;;;;;;;;;5092766;28;20038;-68
2023/12/04 08:40:38;;;;;;;9.95;4.05;;;;;;;;;;5092740;28;20043;-68
2023/12/04 08:43:42;;;;;;;9.13;3.58;;;;;;;;;;5092853;28;20036;-75
2023/12/04 08:46:46;;;;;;;7.43;3.88;;;;;;;;;;5080086;28;20039;-72
2023/12/04 08:49:51;;;;;;;11.18;3.42;;;;;;;;;;5092513;28;20036;-75
2023/12/04 08:52:55;;;;;;;5.53;2.72;;;;;;;;;;5092657;28;20043;-73
2023/12/04 08:55:59;;;;;;;4.45;2.50;;;;;;;;;;5092916;28;20043;-74
2023/12/04 08:59:03;;;;;;;7.40;2.60;;;;;;;;;;5092421;28;20044;-69
2023/12/04 09:02:08;;;;;;;7.70;2.90;;;;;;;;;;5092720;28;20048;-69
2023/12/04 09:05:12;;;;;;;6.45;3.38;;;;;;;;;;5092525;28;20040;-71
2023/12/04 09:08:17;;;;;;;10.02;3.00;;;;;;;;;;5092227;28;20036;-70
2023/12/04 09:11:21;;;;;;;8.60;3.33;;;;;;;;;;5079859;28;20047;-69
2023/12/04 09:14:27;;;;;;;7.10;3.28;;;;;;;;;;5092386;28;20036;-70
2023/12/04 09:17:31;;;;;;;8.40;2.90;;;;;;;;;;5091902;28;20048;-69
2023/12/04 09:20:36;;;;;;;8.95;3.35;;;;;;;;;;5092265;28;20047;-70
2023/12/04 09:23:40;;;;;;;7.70;3.40;;;;;;;;;;5092110;28;20048;-69
2023/12/04 09:26:44;;;;;;;12.55;4.13;;;;;;;;;;5079098;28;20024;-69
2023/12/04 09:29:48;;;;;;;6.68;3.47;;;;;;;;;;5091420;28;20047;-69
2023/12/04 09:32:53;;;;;;;9.85;3.33;;;;;;;;;;5091944;28;20135;-71
2023/12/04 09:35:57;;;;;;;7.45;3.22;;;;;;;;;;5091412;28;20044;-69
2023/12/04 09:39:03;;;;;;;6.95;3.95;;;;;;;;;;5091333;28;20040;-69
2023/12/04 09:42:11;;;;;;;10.63;4.03;;;;;;;;;;5091375;28;20063;-66
2023/12/04 09:45:15;;;;;;;8.07;3.72;;;;;;;;;;5091298;28;20097;-67
2023/12/04 09:48:20;;;;;;;8.43;3.83;;;;;;;;;;5091564;28;20039;-68
2023/12/04 09:51:25;;;;;;;8.23;3.95;;;;;;;;;;5091717;28;20036;-68
2023/12/04 09:54:30;;;;;;;9.15;4.20;;;;;;;;;;5091361;28;20076;-67
2023/12/04 09:57:35;;;;;;;7.68;4.05;;;;;;;;;;5091315;28;20040;-68
2023/12/04 10:00:39;;;;;;;12.55;4.47;;;;;;;;;;5091140;28;20040;-67
2023/12/04 10:03:43;;;;;;;9.77;5.07;;;;;;;;;;5091105;28;20047;-68
2023/12/04 10:06:51;;;;;;;8.70;4.45;;;16.30;80.40;;;;;;5091253;28;20044;-67
2023/12/04 10:09:56;;;;;;;11.70;4.18;;;;;;;;;;5091149;28;20499;-68
2023/12/04 10:13:00;;;;;;;10.45;3.85;;;16.00;81.00;;;;;;5091198;28;20062;-68
2023/12/04 10:16:05;;;;;;;14.55;5.15;;;;;;;;;;5091072;28;20059;-67
2023/12/04 10:19:29;;;;;;;8.15;3.80;;;;;;;;;;5090846;28;20051;-68
2023/12/04 10:22:33;;;;;;;5.85;3.10;;;;;;;;;;5091224;28;20385;-69
2023/12/04 10:25:38;;;;;;;14.75;5.93;;;;;;;;;;5091389;28;20044;-68
2023/12/04 10:28:59;;;;;;;7.47;4.10;;;;;;;;;;5091130;28;20051;-68
2023/12/04 10:32:06;;;;;;;5.72;3.00;;;;;;;;;;5090733;28;20028;-69
2023/12/04 10:35:13;;;;;;;6.00;3.55;;;;;;;;;;5090821;28;20047;-66
2023/12/04 10:38:18;;;;;;;8.68;3.38;;;;;;;;;;5091105;28;20365;-67
2023/12/04 10:41:23;;;;;;;10.52;3.75;;;;;;;;;;5090080;28;20040;-67
2023/12/04 10:44:28;;;;;;;7.55;3.67;;;;;;;;;;5090917;28;20047;-66
2023/12/04 10:47:33;;;;;;;5.90;2.70;;;;;;;;;;5090936;28;20036;-66
2023/12/04 10:50:38;;;;;;;10.85;3.95;;;;;;;;;;5090632;28;20036;-68
2023/12/04 10:53:42;;;;;;;10.90;3.88;;;;;;;;;;5090342;28;20043;-66
2023/12/04 10:56:49;;;;;;;8.43;4.30;;;;;;;;;;5090853;28;20051;-67
2023/12/04 10:59:57;;;;;;;7.25;3.88;;;;;;;;;;5090391;28;20044;-68
2023/12/04 11:03:05;;;;;;;8.43;3.67;;;;;;;;;;5090526;28;20044;-68
2023/12/04 11:06:10;;;;;;;15.18;3.95;;;;;;;;;;5090587;28;20614;-67
2023/12/04 11:09:15;;;;;;;6.43;3.22;;;;;;;;;;5090626;28;20043;-69
2023/12/04 11:12:21;;;;;;;9.55;3.50;;;;;;;;;;5090602;28;20044;-68
2023/12/04 11:15:28;;;;;;;10.57;3.67;;;15.10;80.30;;;;;;5078101;28;20052;-68
2023/12/04 11:18:37;;;;;;;9.30;3.35;;;15.70;81.30;;;;;;5090112;28;20051;-69
2023/12/04 11:21:42;;;;;;;5.45;3.03;;;;;;;;;;5090657;28;20051;-69
2023/12/04 11:24:48;;;;;;;8.80;3.40;;;;;;;;;;5090500;28;20036;-69
2023/12/04 11:27:53;;;;;;;12.63;3.90;;;;;;;;;;5090599;28;20365;-69
2023/12/04 11:30:58;;;;;;;9.45;3.33;;;;;;;;;;5090508;28;20055;-68
2023/12/04 11:34:03;;;;;;;10.40;3.63;;;16.20;80.90;;;;;;5090123;28;20032;-69
2023/12/04 11:37:09;;;;;;;9.10;3.72;;;;;;;;;;5090249;28;20494;-68
2023/12/04 11:40:14;;;;;;;7.40;3.30;;;;;;;;;;5090216;28;20369;-68
2023/12/04 11:43:26;;;;;;;7.68;3.47;;;18.80;80.90;;;;;;5090259;28;20495;-68
2023/12/04 11:46:31;;;;;;;9.52;3.78;;;;;;;;;;5090064;28;20039;-68
2023/12/04 11:49:36;;;;;;;9.48;4.18;;;;;;;;;;5090253;28;20044;-68
2023/12/04 11:52:45;;;;;;;8.70;3.40;;;;;;;;;;5090687;28;20044;-67
2023/12/04 11:55:48;;;;;;;17.88;5.60;;;;;;;;;;5093674;28;20048;-67
2023/12/04 11:58:53;;;;;;;9.27;3.30;;;;;;;;;;5093834;28;20047;-67
2023/12/04 12:01:58;;;;;;;7.68;3.60;;;;;;;;;;5093490;28;20036;-67
2023/12/04 12:05:03;;;;;;;6.28;3.47;;;;;;;;;;5093495;28;20028;-67
2023/12/04 12:08:08;;;;;;;10.07;3.80;;;;;;;;;;5093485;28;20044;-66
2023/12/04 12:11:12;;;;;;;8.30;3.50;;;;;;;;;;5093522;28;20039;-67
2023/12/04 12:14:20;;;;;;;7.47;3.10;;;;;;;;;;5093169;28;20035;-67
2023/12/04 12:17:25;;;;;;;7.97;2.63;;;;;;;;;;5092973;28;20067;-66
2023/12/04 12:20:32;;;;;;;10.88;3.42;;;;;;;;;;5093232;28;20036;-67
2023/12/04 12:23:36;;;;;;;12.55;4.15;;;;;;;;;;5093305;28;20046;-67
2023/12/04 12:26:41;;;;;;;13.90;6.00;;;;;;;;;;5092930;28;20039;-68
2023/12/04 12:29:45;;;;;;;10.90;3.90;;;;;;;;;;5092992;28;20043;-67
2023/12/04 12:32:51;;;;;;;12.30;4.72;;;;;;;;;;5093094;28;20051;-67
2023/12/04 12:35:56;;;;;;;9.23;4.35;;;15.70;81.00;;;;;;5093173;28;20055;-68
2023/12/04 12:39:03;;;;;;;9.80;3.53;;;;;;;;;;5093006;28;20506;-66
2023/12/04 12:42:07;;;;;;;13.20;4.55;;;;;;;;;;5092833;28;20036;-66
2023/12/04 12:45:12;;;;;;;23.08;5.03;;;;;;;;;;5093150;28;20051;-66
2023/12/04 12:48:16;;;;;;;9.68;3.53;;;;;;;;;;5093120;28;20394;-67
2023/12/04 12:51:21;;;;;;;11.10;3.60;;;;;;;;;;5093211;28;20483;-68
2023/12/04 12:54:25;;;;;;;17.40;5.65;;;;;;;;;;5092992;28;20392;-68
2023/12/04 12:57:30;;;;;;;9.00;3.88;;;;;;;;;;5080371;28;20506;-68
2023/12/04 13:00:35;;;;;;;14.45;4.30;;;15.40;80.40;;;;;;5092671;28;20048;-68
2023/12/04 13:03:39;;;;;;;16.80;7.53;;;;;;;;;;5092693;28;20055;-67
2023/12/04 13:06:43;;;;;;;18.90;6.68;;;;;;;;;;5092166;28;20054;-67
2023/12/04 13:09:48;;;;;;;16.73;7.32;;;;;;;;;;5092420;28;20062;-67
2023/12/04 13:12:53;;;;;;;17.15;6.47;;;;;;;;;;5092652;28;20046;-67
2023/12/04 13:15:58;;;;;;;13.88;6.57;;;;;;;;;;5092298;28;20059;-66
2023/12/04 13:19:02;;;;;;;13.95;6.47;;;;;;;;;;5092384;28;20055;-68
2023/12/04 13:22:07;;;;;;;14.90;6.20;;;;;;;;;;5092020;28;20058;-66
2023/12/04 13:25:11;;;;;;;15.55;6.93;;;;;;;;;;5091853;28;20047;-66
2023/12/04 13:28:15;;;;;;;14.70;5.60;;;;;;;;;;5091639;28;20043;-68
2023/12/04 13:31:20;;;;;;;11.52;4.97;;;;;;;;;;5091718;28;20419;-66
2023/12/04 13:34:24;;;;;;;15.95;4.72;;;;;;;;;;5091808;28;20051;-66
2023/12/04 13:37:28;;;;;;;13.15;5.63;;;;;;;;;;5092176;28;20055;-66
2023/12/04 13:40:34;;;;;;;14.00;4.75;;;;;;;;;;5092105;28;20051;-66
2023/12/04 13:43:50;;;;;;;12.68;4.55;;;;;;;;;;5092158;28;20054;-66
2023/12/04 13:46:54;;;;;;;11.55;4.60;;;;;;;;;;5091919;28;20039;-66
2023/12/04 13:49:59;;;;;;;12.55;5.28;;;;;;;;;;5091843;28;20035;-66
2023/12/04 13:53:06;;;;;;;15.40;4.82;;;;;;;;;;5091534;28;20047;-66
2023/12/04 13:56:42;;;;;;;18.42;5.53;;;15.40;80.60;;;;;;5091489;28;20054;-66
2023/12/04 13:59:47;;;;;;;21.13;5.80;;;;;;;;;;5091474;28;20046;-66
2023/12/04 14:02:53;;;;;;;16.13;5.55;;;;;;;;;;5091374;28;20039;-66
2023/12/04 14:05:57;;;;;;;11.45;4.82;;;;;;;;;;5091484;28;20047;-66
2023/12/04 14:09:01;;;;;;;13.20;4.65;;;;;;;;;;5091143;28;20047;-66
2023/12/04 14:12:06;;;;;;;9.15;4.78;;;;;;;;;;5091143;28;20047;-66
2023/12/04 14:15:10;;;;;;;18.73;5.35;;;;;;;;;;5090922;28;20040;-66
2023/12/04 14:18:14;;;;;;;19.98;5.03;;;;;;;;;;5090071;28;20047;-66
2023/12/04 14:21:18;;;;;;;19.60;4.97;;;;;;;;;;5078554;28;20399;-66
2023/12/04 14:24:22;;;;;;;28.20;5.10;;;;;;;;;;5078517;28;20039;-66
2023/12/04 14:27:27;;;;;;;28.50;7.63;;;;;;;;;;5091254;28;20047;-67
2023/12/04 14:30:31;;;;;;;15.65;5.95;;;;;;;;;;5091018;28;20058;-66
2023/12/04 14:33:36;;;;;;;13.02;4.95;;;;;;;;;;5090993;28;20212;-67
2023/12/04 14:36:40;;;;;;;13.90;5.05;;;;;;;;;;5090933;28;20059;-67
2023/12/04 14:39:45;;;;;;;14.07;5.93;;;;;;;;;;5091041;28;20388;-66
2023/12/04 14:42:50;;;;;;;12.63;5.60;;;;;;;;;;5090910;28;20487;-66
2023/12/04 14:45:55;;;;;;;17.70;6.72;;;;;;;;;;5091041;28;20047;-66
2023/12/04 14:48:59;;;;;;;20.63;6.93;;;;;;;;;;5090995;28;20051;-66
2023/12/04 14:52:05;;;;;;;21.42;7.55;;;;;;;;;;5090715;28;20065;-66
2023/12/04 15:11:24;;;;;;;19.30;6.65;;;;;;;;;;5090863;28;20047;-66
2023/12/04 15:17:51;;;;;;;21.30;7.93;;;;;;;;;;5090190;28;20070;-66
2023/12/04 15:20:55;;;;;;;25.20;8.00;;;;;;;;;;5090618;28;20526;-65
2023/12/04 15:24:00;;;;;;;18.00;7.85;;;;;;;;;;5090688;28;20039;-64
2023/12/04 15:27:04;;;;;;;34.08;8.70;;;;;;;;;;5078164;28;20043;-65
2023/12/04 15:30:09;;;;;;;29.13;9.18;;;;;;;;;;5094435;28;20051;-65
2023/12/04 15:33:13;;;;;;;24.58;8.73;;;;;;;;;;5094396;28;20043;-65
2023/12/04 15:36:21;;;;;;;28.15;8.40;;;;;;;;;;5094215;28;20522;-66
2023/12/04 15:39:25;;;;;;;29.23;8.68;;;;;;;;;;5093966;28;20047;-66
2023/12/04 15:42:30;;;;;;;21.13;8.48;;;;;;;;;;5093915;28;20368;-65
2023/12/04 15:45:35;;;;;;;32.45;8.90;;;;;;;;;;5093771;28;20047;-66
2023/12/04 15:48:39;;;;;;;45.53;12.52;;;;;;;;;;5094046;28;20043;-66
2023/12/04 15:51:44;;;;;;;44.38;9.98;;;;;;;;;;5094317;28;20039;-66
2023/12/04 15:54:48;;;;;;;27.85;8.80;;;;;;;;;;5093993;28;20395;-66
2023/12/04 15:57:54;;;;;;;31.83;8.60;;;;;;;;;;5093581;28;20055;-66
2023/12/04 16:01:04;;;;;;;32.53;9.50;;;14.20;89.40;;;;;;5093634;28;20637;-67
2023/12/04 16:04:08;;;;;;;43.20;14.75;;;;;;;;;;5093753;28;20051;-66
2023/12/04 16:07:13;;;;;;;40.80;16.15;;;;;;;;;;5093717;28;20063;-67
2023/12/04 16:10:17;;;;;;;39.65;13.88;;;;;;;;;;5093496;28;20522;-66
2023/12/04 16:13:22;;;;;;;32.15;12.73;;;;;;;;;;5093666;28;20043;-65
2023/12/04 16:16:26;;;;;;;36.40;14.40;;;;;;;;;;5093079;28;20055;-65
2023/12/04 16:19:33;;;;;;;43.15;13.50;;;;;;;;;;5093118;28;20822;-66
2023/12/04 16:22:39;;;;;;;45.83;13.13;;;12.60;90.40;;;;;;5093352;28;20043;-65
2023/12/04 16:25:44;;;;;;;69.45;16.70;;;;;;;;;;5093228;28;20047;-65
2023/12/04 16:28:48;;;;;;;70.30;15.60;;;;;;;;;;5093407;28;20407;-66
2023/12/04 16:31:52;;;;;;;63.17;15.00;;;;;;;;;;5093231;28;20058;-66
2023/12/04 16:34:59;;;;;;;68.68;15.43;;;13.50;91.70;;;;;;5093249;28;20406;-65
2023/12/04 16:38:03;;;;;;;42.00;12.13;;;;;;;;;;5092776;28;20039;-66
2023/12/04 16:41:08;;;;;;;46.80;11.70;;;;;;;;;;5092019;28;20475;-67
2023/12/04 16:44:17;;;;;;;32.08;11.50;;;;;;;;;;5092931;28;20054;-67
2023/12/04 16:47:21;;;;;;;76.35;13.95;;;;;;;;;;5092923;28;20071;-67
2023/12/04 16:50:26;;;;;;;55.33;12.95;;;;;;;;;;5092747;28;20051;-66
2023/12/04 16:53:34;;;;;;;50.05;14.70;;;;;;;;;;5080332;28;20494;-66
2023/12/04 16:56:38;;;;;;;56.13;20.17;;;;;;;;;;5092238;28;20059;-67
2023/12/04 16:59:43;;;;;;;58.80;25.73;;;;;;;;;;5092300;28;20403;-66
2023/12/04 17:02:50;;;;;;;60.92;23.80;;;;;;;;;;5092430;28;20051;-67
2023/12/04 17:05:54;;;;;;;60.15;19.27;;;;;;;;;;5092304;28;20039;-66
2023/12/04 17:08:58;;;;;;;64.70;22.17;;;;;;;;;;5092157;28;20054;-66
2023/12/04 17:12:03;;;;;;;74.35;22.80;;;;;;;;;;5092656;28;20046;-66
2023/12/04 17:15:07;;;;;;;79.75;24.27;;;;;;;;;;5092495;28;20051;-66
2023/12/04 17:18:12;;;;;;;68.30;22.50;;;;;;;;;;5091853;28;20067;-67
2023/12/04 17:21:16;;;;;;;85.35;27.30;;;;;;;;;;5092119;28;20043;-67
2023/12/04 17:24:21;;;;;;;65.15;28.67;;;;;;;;;;5092088;28;20067;-67
2023/12/04 17:27:25;;;;;;;73.68;34.53;;;;;;;;;;5079317;28;20050;-67
2023/12/04 17:30:29;;;;;;;77.55;34.60;;;;;;;;;;5092174;28;20043;-66
2023/12/04 17:33:34;;;;;;;84.57;37.40;;;;;;;;;;5091678;28;20198;-66
2023/12/04 17:36:38;;;;;;;77.03;36.17;;;;;;;;;;5091526;28;20059;-65
2023/12/04 17:39:43;;;;;;;102.28;40.53;;;12.80;93.70;;;;;;5091304;28;20047;-65
2023/12/04 17:42:48;;;;;;;124.35;50.67;;;;;;;;;;5091859;28;20055;-64
2023/12/04 17:45:52;;;;;;;94.15;41.28;;;;;;;;;;5091406;28;20047;-65